sensor_id;sensor_type;location;lat;lon;timestamp;P1;durP1;ratioP1;P2;durP2;ratioP2
26512;SDS011;14186;53.822;10.152;2023-03-01T00:03:01;17.75;;;7.18;;
26512;SDS011;14186;53.822;10.152;2023-03-01T00:08:01;20.00;;;8.27;;
26512;SDS011;14186;53.822;10.152;2023-03-01T00:13:03;19.77;;;8.48;;
26512;SDS011;14186;53.822;10.152;2023-03-01T00:18:03;20.10;;;8.55;;
26512;SDS011;14186;53.822;10.152;2023-03-01T00:23:03;17.73;;;8.63;;
26512;SDS011;14186;53.822;10.152;2023-03-01T00:28:05;20.00;;;8.85;;
26512;SDS011;14186;53.822;10.152;2023-03-01T00:33:05;20.33;;;8.63;;
26512;SDS011;14186;53.822;10.152;2023-03-01T00:38:05;14.85;;;8.20;;
26512;SDS011;14186;53.822;10.152;2023-03-01T00:43:08;14.23;;;7.57;;
26512;SDS011;14186;53.822;10.152;2023-03-01T00:48:08;17.50;;;7.20;;
26512;SDS011;14186;53.822;10.152;2023-03-01T00:53:08;16.92;;;7.88;;
26512;SDS011;14186;53.822;10.152;2023-03-01T00:58:09;20.80;;;8.18;;
26512;SDS011;14186;53.822;10.152;2023-03-01T01:03:10;14.95;;;7.32;;
26512;SDS011;14186;53.822;10.152;2023-03-01T01:08:10;14.32;;;6.80;;
26512;SDS011;14186;53.822;10.152;2023-03-01T01:13:11;12.73;;;6.95;;
26512;SDS011;14186;53.822;10.152;2023-03-01T01:18:12;12.15;;;6.53;;
26512;SDS011;14186;53.822;10.152;2023-03-01T01:23:12;13.25;;;6.60;;
26512;SDS011;14186;53.822;10.152;2023-03-01T01:28:13;15.85;;;7.32;;
26512;SDS011;14186;53.822;10.152;2023-03-01T01:33:14;16.52;;;7.38;;
26512;SDS011;14186;53.822;10.152;2023-03-01T01:38:14;13.25;;;7.03;;
26512;SDS011;14186;53.822;10.152;2023-03-01T01:43:17;13.73;;;7.53;;
26512;SDS011;14186;53.822;10.152;2023-03-01T01:48:19;17.05;;;7.72;;
26512;SDS011;14186;53.822;10.152;2023-03-01T01:53:20;16.08;;;7.50;;
26512;SDS011;14186;53.822;10.152;2023-03-01T01:58:22;18.40;;;8.07;;
26512;SDS011;14186;53.822;10.152;2023-03-01T02:03:24;19.02;;;9.48;;
26512;SDS011;14186;53.822;10.152;2023-03-01T02:08:26;18.08;;;9.15;;
26512;SDS011;14186;53.822;10.152;2023-03-01T02:13:28;21.55;;;9.48;;
26512;SDS011;14186;53.822;10.152;2023-03-01T02:18:30;19.70;;;8.45;;
26512;SDS011;14186;53.822;10.152;2023-03-01T02:23:30;14.30;;;8.30;;
26512;SDS011;14186;53.822;10.152;2023-03-01T02:28:32;18.48;;;8.57;;
26512;SDS011;14186;53.822;10.152;2023-03-01T02:33:34;16.60;;;7.88;;
26512;SDS011;14186;53.822;10.152;2023-03-01T02:38:35;16.20;;;8.45;;
26512;SDS011;14186;53.822;10.152;2023-03-01T02:43:36;14.95;;;8.52;;
26512;SDS011;14186;53.822;10.152;2023-03-01T02:48:39;14.45;;;8.75;;
26512;SDS011;14186;53.822;10.152;2023-03-01T02:53:40;17.83;;;8.23;;
26512;SDS011;14186;53.822;10.152;2023-03-01T02:58:45;20.52;;;8.27;;
26512;SDS011;14186;53.822;10.152;2023-03-01T03:03:45;18.20;;;9.18;;
26512;SDS011;14186;53.822;10.152;2023-03-01T03:08:46;18.13;;;9.43;;
26512;SDS011;14186;53.822;10.152;2023-03-01T03:13:47;20.48;;;9.50;;
26512;SDS011;14186;53.822;10.152;2023-03-01T03:18:47;24.10;;;9.13;;
26512;SDS011;14186;53.822;10.152;2023-03-01T03:23:48;16.48;;;8.07;;
26512;SDS011;14186;53.822;10.152;2023-03-01T03:28:49;16.15;;;7.95;;
26512;SDS011;14186;53.822;10.152;2023-03-01T03:33:49;15.05;;;7.60;;
26512;SDS011;14186;53.822;10.152;2023-03-01T03:38:50;17.20;;;7.75;;
26512;SDS011;14186;53.822;10.152;2023-03-01T03:43:51;19.30;;;8.70;;
26512;SDS011;14186;53.822;10.152;2023-03-01T03:48:51;13.98;;;7.43;;
26512;SDS011;14186;53.822;10.152;2023-03-01T03:53:52;16.88;;;7.97;;
26512;SDS011;14186;53.822;10.152;2023-03-01T03:58:53;16.23;;;7.85;;
26512;SDS011;14186;53.822;10.152;2023-03-01T04:03:53;19.08;;;8.65;;
26512;SDS011;14186;53.822;10.152;2023-03-01T04:08:54;16.02;;;7.97;;
26512;SDS011;14186;53.822;10.152;2023-03-01T04:13:56;15.85;;;7.68;;
26512;SDS011;14186;53.822;10.152;2023-03-01T04:18:57;15.43;;;8.45;;
26512;SDS011;14186;53.822;10.152;2023-03-01T04:23:57;18.92;;;8.82;;
26512;SDS011;14186;53.822;10.152;2023-03-01T04:28:58;16.50;;;8.40;;
26512;SDS011;14186;53.822;10.152;2023-03-01T04:33:58;14.20;;;7.93;;
26512;SDS011;14186;53.822;10.152;2023-03-01T04:38:59;18.55;;;9.10;;
26512;SDS011;14186;53.822;10.152;2023-03-01T04:44:00;18.48;;;8.52;;
26512;SDS011;14186;53.822;10.152;2023-03-01T04:49:00;16.23;;;8.55;;
26512;SDS011;14186;53.822;10.152;2023-03-01T04:54:01;19.17;;;9.07;;
26512;SDS011;14186;53.822;10.152;2023-03-01T04:59:02;17.65;;;8.95;;
26512;SDS011;14186;53.822;10.152;2023-03-01T05:04:02;19.73;;;9.15;;
26512;SDS011;14186;53.822;10.152;2023-03-01T05:09:02;17.92;;;8.60;;
26512;SDS011;14186;53.822;10.152;2023-03-01T05:14:04;22.17;;;9.02;;
26512;SDS011;14186;53.822;10.152;2023-03-01T05:19:05;17.30;;;8.40;;
26512;SDS011;14186;53.822;10.152;2023-03-01T05:24:05;18.55;;;8.93;;
26512;SDS011;14186;53.822;10.152;2023-03-01T05:29:07;16.30;;;8.38;;
26512;SDS011;14186;53.822;10.152;2023-03-01T05:34:07;19.73;;;9.20;;
26512;SDS011;14186;53.822;10.152;2023-03-01T05:39:07;19.70;;;8.55;;
26512;SDS011;14186;53.822;10.152;2023-03-01T05:44:09;16.38;;;8.85;;
26512;SDS011;14186;53.822;10.152;2023-03-01T05:49:09;21.33;;;8.43;;
26512;SDS011;14186;53.822;10.152;2023-03-01T05:54:09;22.10;;;10.80;;
26512;SDS011;14186;53.822;10.152;2023-03-01T05:59:11;24.02;;;10.23;;
26512;SDS011;14186;53.822;10.152;2023-03-01T06:04:11;24.70;;;11.13;;
26512;SDS011;14186;53.822;10.152;2023-03-01T06:09:11;23.63;;;10.35;;
26512;SDS011;14186;53.822;10.152;2023-03-01T06:14:13;43.38;;;16.77;;
26512;SDS011;14186;53.822;10.152;2023-03-01T06:19:13;66.20;;;19.60;;
26512;SDS011;14186;53.822;10.152;2023-03-01T06:24:13;161.70;;;24.48;;
26512;SDS011;14186;53.822;10.152;2023-03-01T06:29:15;101.60;;;24.33;;
26512;SDS011;14186;53.822;10.152;2023-03-01T06:34:15;124.47;;;23.42;;
26512;SDS011;14186;53.822;10.152;2023-03-01T06:39:15;116.60;;;24.80;;
26512;SDS011;14186;53.822;10.152;2023-03-01T06:44:17;98.40;;;24.50;;
26512;SDS011;14186;53.822;10.152;2023-03-01T06:49:17;175.38;;;27.40;;
26512;SDS011;14186;53.822;10.152;2023-03-01T06:54:17;62.10;;;22.55;;
26512;SDS011;14186;53.822;10.152;2023-03-01T06:59:19;70.93;;;20.77;;
26512;SDS011;14186;53.822;10.152;2023-03-01T07:04:19;127.72;;;22.90;;
26512;SDS011;14186;53.822;10.152;2023-03-01T07:09:19;70.47;;;18.63;;
26512;SDS011;14186;53.822;10.152;2023-03-01T07:14:21;64.47;;;18.17;;
26512;SDS011;14186;53.822;10.152;2023-03-01T07:19:21;66.75;;;17.90;;
26512;SDS011;14186;53.822;10.152;2023-03-01T07:24:21;106.28;;;20.48;;
26512;SDS011;14186;53.822;10.152;2023-03-01T07:29:23;51.67;;;18.77;;
26512;SDS011;14186;53.822;10.152;2023-03-01T07:34:23;101.63;;;19.88;;
26512;SDS011;14186;53.822;10.152;2023-03-01T07:39:24;44.97;;;16.98;;
26512;SDS011;14186;53.822;10.152;2023-03-01T07:44:25;47.63;;;16.88;;
26512;SDS011;14186;53.822;10.152;2023-03-01T07:49:25;65.50;;;18.05;;
26512;SDS011;14186;53.822;10.152;2023-03-01T07:54:26;41.95;;;19.75;;
26512;SDS011;14186;53.822;10.152;2023-03-01T07:59:27;50.30;;;19.73;;
26512;SDS011;14186;53.822;10.152;2023-03-01T08:04:28;46.83;;;17.83;;
26512;SDS011;14186;53.822;10.152;2023-03-01T08:09:28;66.43;;;18.73;;
26512;SDS011;14186;53.822;10.152;2023-03-01T08:14:29;68.72;;;19.33;;
26512;SDS011;14186;53.822;10.152;2023-03-01T08:19:30;92.13;;;21.42;;
26512;SDS011;14186;53.822;10.152;2023-03-01T08:24:30;92.75;;;18.00;;
26512;SDS011;14186;53.822;10.152;2023-03-01T08:29:32;54.63;;;17.65;;
26512;SDS011;14186;53.822;10.152;2023-03-01T08:34:32;48.35;;;18.42;;
26512;SDS011;14186;53.822;10.152;2023-03-01T08:39:32;91.50;;;19.25;;
26512;SDS011;14186;53.822;10.152;2023-03-01T08:44:34;134.73;;;20.17;;
26512;SDS011;14186;53.822;10.152;2023-03-01T08:49:34;43.17;;;15.32;;
26512;SDS011;14186;53.822;10.152;2023-03-01T08:54:34;43.40;;;15.23;;
26512;SDS011;14186;53.822;10.152;2023-03-01T08:59:36;40.88;;;15.40;;
26512;SDS011;14186;53.822;10.152;2023-03-01T09:04:36;50.97;;;14.68;;
26512;SDS011;14186;53.822;10.152;2023-03-01T09:09:36;82.45;;;14.38;;
26512;SDS011;14186;53.822;10.152;2023-03-01T09:14:38;29.40;;;12.68;;
26512;SDS011;14186;53.822;10.152;2023-03-01T09:19:38;57.05;;;11.63;;
26512;SDS011;14186;53.822;10.152;2023-03-01T09:24:38;15.52;;;7.43;;
26512;SDS011;14186;53.822;10.152;2023-03-01T09:29:40;23.33;;;8.05;;
26512;SDS011;14186;53.822;10.152;2023-03-01T09:34:40;77.82;;;10.55;;
26512;SDS011;14186;53.822;10.152;2023-03-01T09:39:40;90.25;;;10.35;;
26512;SDS011;14186;53.822;10.152;2023-03-01T09:44:43;25.42;;;7.32;;
26512;SDS011;14186;53.822;10.152;2023-03-01T09:49:45;67.07;;;9.13;;
26512;SDS011;14186;53.822;10.152;2023-03-01T09:54:52;47.05;;;7.63;;
26512;SDS011;14186;53.822;10.152;2023-03-01T10:00:09;67.28;;;9.60;;
26512;SDS011;14186;53.822;10.152;2023-03-01T10:05:15;44.80;;;10.10;;
26512;SDS011;14186;53.822;10.152;2023-03-01T10:10:23;29.42;;;8.32;;
26512;SDS011;14186;53.822;10.152;2023-03-01T10:15:28;22.95;;;7.20;;
26512;SDS011;14186;53.822;10.152;2023-03-01T10:20:32;19.52;;;6.20;;
26512;SDS011;14186;53.822;10.152;2023-03-01T10:25:41;32.47;;;9.35;;
26512;SDS011;14186;53.822;10.152;2023-03-01T10:30:44;35.90;;;12.30;;
26512;SDS011;14186;53.822;10.152;2023-03-01T10:35:44;24.45;;;12.25;;
26512;SDS011;14186;53.822;10.152;2023-03-01T10:40:51;30.40;;;13.27;;
26512;SDS011;14186;53.822;10.152;2023-03-01T10:45:54;22.23;;;10.82;;
26512;SDS011;14186;53.822;10.152;2023-03-01T10:51:04;22.88;;;10.68;;
26512;SDS011;14186;53.822;10.152;2023-03-01T10:56:05;21.08;;;10.43;;
26512;SDS011;14186;53.822;10.152;2023-03-01T11:01:24;21.88;;;10.20;;
26512;SDS011;14186;53.822;10.152;2023-03-01T11:06:24;19.65;;;9.50;;
26512;SDS011;14186;53.822;10.152;2023-03-01T11:11:31;14.77;;;8.10;;
26512;SDS011;14186;53.822;10.152;2023-03-01T11:16:34;17.30;;;7.65;;
26512;SDS011;14186;53.822;10.152;2023-03-01T11:21:35;11.75;;;6.60;;
26512;SDS011;14186;53.822;10.152;2023-03-01T11:26:38;13.52;;;7.10;;
26512;SDS011;14186;53.822;10.152;2023-03-01T11:31:40;11.18;;;6.55;;
26512;SDS011;14186;53.822;10.152;2023-03-01T11:36:41;11.05;;;6.30;;
26512;SDS011;14186;53.822;10.152;2023-03-01T11:41:43;27.52;;;11.77;;
26512;SDS011;14186;53.822;10.152;2023-03-01T11:46:57;25.80;;;10.73;;
26512;SDS011;14186;53.822;10.152;2023-03-01T11:52:05;22.15;;;9.52;;
26512;SDS011;14186;53.822;10.152;2023-03-01T12:02:18;13.27;;;7.47;;
26512;SDS011;14186;53.822;10.152;2023-03-01T12:07:21;14.00;;;7.55;;
26512;SDS011;14186;53.822;10.152;2023-03-01T12:12:28;14.65;;;7.72;;
26512;SDS011;14186;53.822;10.152;2023-03-01T12:17:43;17.00;;;9.00;;
26512;SDS011;14186;53.822;10.152;2023-03-01T12:28:21;18.40;;;9.68;;
26512;SDS011;14186;53.822;10.152;2023-03-01T12:33:29;16.90;;;9.05;;
26512;SDS011;14186;53.822;10.152;2023-03-01T12:38:32;18.70;;;8.57;;
26512;SDS011;14186;53.822;10.152;2023-03-01T12:43:36;17.65;;;9.32;;
26512;SDS011;14186;53.822;10.152;2023-03-01T12:48:42;18.38;;;8.98;;
26512;SDS011;14186;53.822;10.152;2023-03-01T12:53:46;17.30;;;8.68;;
26512;SDS011;14186;53.822;10.152;2023-03-01T12:58:50;20.83;;;9.63;;
26512;SDS011;14186;53.822;10.152;2023-03-01T13:03:59;17.73;;;9.18;;
26512;SDS011;14186;53.822;10.152;2023-03-01T13:09:04;18.35;;;9.27;;
26512;SDS011;14186;53.822;10.152;2023-03-01T13:19:26;18.75;;;9.07;;
26512;SDS011;14186;53.822;10.152;2023-03-01T13:24:27;25.60;;;11.98;;
26512;SDS011;14186;53.822;10.152;2023-03-01T13:29:27;15.82;;;8.65;;
26512;SDS011;14186;53.822;10.152;2023-03-01T13:34:41;27.23;;;13.15;;
26512;SDS011;14186;53.822;10.152;2023-03-01T13:39:42;20.27;;;10.17;;
26512;SDS011;14186;53.822;10.152;2023-03-01T13:44:42;16.98;;;9.10;;
26512;SDS011;14186;53.822;10.152;2023-03-01T13:49:45;17.38;;;7.90;;
26512;SDS011;14186;53.822;10.152;2023-03-01T13:54:46;14.95;;;8.02;;
26512;SDS011;14186;53.822;10.152;2023-03-01T13:59:46;15.55;;;8.55;;
26512;SDS011;14186;53.822;10.152;2023-03-01T14:04:56;13.55;;;7.38;;
26512;SDS011;14186;53.822;10.152;2023-03-01T14:09:58;13.38;;;6.40;;
26512;SDS011;14186;53.822;10.152;2023-03-01T14:14:59;14.25;;;8.25;;
26512;SDS011;14186;53.822;10.152;2023-03-01T14:20:08;15.88;;;8.30;;
26512;SDS011;14186;53.822;10.152;2023-03-01T14:25:22;13.77;;;7.35;;
26512;SDS011;14186;53.822;10.152;2023-03-01T14:30:24;16.42;;;8.13;;
26512;SDS011;14186;53.822;10.152;2023-03-01T14:35:27;16.00;;;8.05;;
26512;SDS011;14186;53.822;10.152;2023-03-01T14:40:29;15.50;;;7.20;;
26512;SDS011;14186;53.822;10.152;2023-03-01T14:45:29;16.60;;;8.25;;
26512;SDS011;14186;53.822;10.152;2023-03-01T14:50:31;16.50;;;8.13;;
26512;SDS011;14186;53.822;10.152;2023-03-01T14:55:32;13.52;;;7.03;;
26512;SDS011;14186;53.822;10.152;2023-03-01T15:00:33;13.48;;;7.60;;
26512;SDS011;14186;53.822;10.152;2023-03-01T15:05:35;14.98;;;7.70;;
26512;SDS011;14186;53.822;10.152;2023-03-01T15:10:36;12.77;;;6.85;;
26512;SDS011;14186;53.822;10.152;2023-03-01T15:15:38;7.07;;;3.65;;
26512;SDS011;14186;53.822;10.152;2023-03-01T15:20:40;6.38;;;3.35;;
26512;SDS011;14186;53.822;10.152;2023-03-01T15:25:43;5.63;;;2.95;;
26512;SDS011;14186;53.822;10.152;2023-03-01T15:30:44;6.28;;;3.13;;
26512;SDS011;14186;53.822;10.152;2023-03-01T15:35:46;6.18;;;2.58;;
26512;SDS011;14186;53.822;10.152;2023-03-01T15:40:48;4.90;;;2.55;;
26512;SDS011;14186;53.822;10.152;2023-03-01T15:45:55;4.38;;;2.70;;
26512;SDS011;14186;53.822;10.152;2023-03-01T15:50:57;6.03;;;3.95;;
26512;SDS011;14186;53.822;10.152;2023-03-01T15:55:58;9.52;;;4.43;;
26512;SDS011;14186;53.822;10.152;2023-03-01T16:00:58;8.40;;;4.68;;
26512;SDS011;14186;53.822;10.152;2023-03-01T16:06:00;11.35;;;6.15;;
26512;SDS011;14186;53.822;10.152;2023-03-01T16:11:00;16.95;;;7.57;;
26512;SDS011;14186;53.822;10.152;2023-03-01T16:16:00;15.15;;;8.18;;
26512;SDS011;14186;53.822;10.152;2023-03-01T16:21:02;16.83;;;8.80;;
26512;SDS011;14186;53.822;10.152;2023-03-01T16:26:02;19.25;;;9.35;;
26512;SDS011;14186;53.822;10.152;2023-03-01T16:31:02;23.42;;;10.55;;
26512;SDS011;14186;53.822;10.152;2023-03-01T16:36:07;26.33;;;11.03;;
26512;SDS011;14186;53.822;10.152;2023-03-01T16:46:11;22.77;;;11.48;;
26512;SDS011;14186;53.822;10.152;2023-03-01T16:51:13;24.55;;;11.02;;
26512;SDS011;14186;53.822;10.152;2023-03-01T16:56:13;26.48;;;11.73;;
26512;SDS011;14186;53.822;10.152;2023-03-01T17:01:15;21.33;;;11.10;;
26512;SDS011;14186;53.822;10.152;2023-03-01T17:06:17;22.65;;;10.93;;
26512;SDS011;14186;53.822;10.152;2023-03-01T17:11:18;19.08;;;8.90;;
26512;SDS011;14186;53.822;10.152;2023-03-01T17:16:19;27.35;;;12.18;;
26512;SDS011;14186;53.822;10.152;2023-03-01T17:21:21;28.83;;;13.02;;
26512;SDS011;14186;53.822;10.152;2023-03-01T17:26:21;27.38;;;13.73;;
26512;SDS011;14186;53.822;10.152;2023-03-01T17:31:21;24.73;;;11.93;;
26512;SDS011;14186;53.822;10.152;2023-03-01T17:36:23;30.70;;;11.68;;
26512;SDS011;14186;53.822;10.152;2023-03-01T17:41:23;26.25;;;11.82;;
26512;SDS011;14186;53.822;10.152;2023-03-01T17:46:23;26.52;;;11.40;;
26512;SDS011;14186;53.822;10.152;2023-03-01T17:51:25;23.52;;;11.25;;
26512;SDS011;14186;53.822;10.152;2023-03-01T17:56:25;23.73;;;11.15;;
26512;SDS011;14186;53.822;10.152;2023-03-01T18:01:25;25.33;;;13.07;;
26512;SDS011;14186;53.822;10.152;2023-03-01T18:06:27;26.98;;;11.95;;
26512;SDS011;14186;53.822;10.152;2023-03-01T18:11:27;28.27;;;13.48;;
26512;SDS011;14186;53.822;10.152;2023-03-01T18:16:28;29.02;;;12.85;;
26512;SDS011;14186;53.822;10.152;2023-03-01T18:21:29;31.15;;;14.52;;
26512;SDS011;14186;53.822;10.152;2023-03-01T18:26:30;27.83;;;12.88;;
26512;SDS011;14186;53.822;10.152;2023-03-01T18:31:30;26.23;;;12.30;;
26512;SDS011;14186;53.822;10.152;2023-03-01T18:36:32;29.60;;;12.75;;
26512;SDS011;14186;53.822;10.152;2023-03-01T18:41:32;30.25;;;13.38;;
26512;SDS011;14186;53.822;10.152;2023-03-01T18:46:32;30.30;;;14.57;;
26512;SDS011;14186;53.822;10.152;2023-03-01T18:51:34;37.75;;;13.75;;
26512;SDS011;14186;53.822;10.152;2023-03-01T18:56:34;30.90;;;13.45;;
26512;SDS011;14186;53.822;10.152;2023-03-01T19:01:34;28.95;;;13.32;;
26512;SDS011;14186;53.822;10.152;2023-03-01T19:06:36;34.80;;;13.88;;
26512;SDS011;14186;53.822;10.152;2023-03-01T19:11:36;28.15;;;13.50;;
26512;SDS011;14186;53.822;10.152;2023-03-01T19:16:36;30.52;;;12.93;;
26512;SDS011;14186;53.822;10.152;2023-03-01T19:21:38;25.08;;;12.60;;
26512;SDS011;14186;53.822;10.152;2023-03-01T19:26:38;32.38;;;14.15;;
26512;SDS011;14186;53.822;10.152;2023-03-01T19:31:38;27.25;;;13.50;;
26512;SDS011;14186;53.822;10.152;2023-03-01T19:36:40;36.53;;;14.73;;
26512;SDS011;14186;53.822;10.152;2023-03-01T19:41:41;41.58;;;14.43;;
26512;SDS011;14186;53.822;10.152;2023-03-01T19:46:41;31.45;;;14.50;;
26512;SDS011;14186;53.822;10.152;2023-03-01T19:51:43;61.45;;;15.60;;
26512;SDS011;14186;53.822;10.152;2023-03-01T19:56:43;115.13;;;19.17;;
26512;SDS011;14186;53.822;10.152;2023-03-01T20:01:43;83.32;;;17.73;;
26512;SDS011;14186;53.822;10.152;2023-03-01T20:06:45;187.02;;;26.75;;
26512;SDS011;14186;53.822;10.152;2023-03-01T20:11:45;182.90;;;20.90;;
26512;SDS011;14186;53.822;10.152;2023-03-01T20:16:45;126.72;;;20.60;;
26512;SDS011;14186;53.822;10.152;2023-03-01T20:21:47;138.35;;;18.52;;
26512;SDS011;14186;53.822;10.152;2023-03-01T20:26:47;113.68;;;15.80;;
26512;SDS011;14186;53.822;10.152;2023-03-01T20:31:47;111.13;;;16.83;;
26512;SDS011;14186;53.822;10.152;2023-03-01T20:36:49;129.98;;;17.48;;
26512;SDS011;14186;53.822;10.152;2023-03-01T20:41:49;38.20;;;10.25;;
26512;SDS011;14186;53.822;10.152;2023-03-01T20:46:49;86.82;;;12.80;;
26512;SDS011;14186;53.822;10.152;2023-03-01T20:51:51;99.88;;;18.42;;
26512;SDS011;14186;53.822;10.152;2023-03-01T20:56:51;105.93;;;14.15;;
26512;SDS011;14186;53.822;10.152;2023-03-01T21:01:51;91.15;;;15.35;;
26512;SDS011;14186;53.822;10.152;2023-03-01T21:06:53;67.57;;;13.23;;
26512;SDS011;14186;53.822;10.152;2023-03-01T21:11:53;119.70;;;18.10;;
26512;SDS011;14186;53.822;10.152;2023-03-01T21:16:53;58.97;;;13.38;;
26512;SDS011;14186;53.822;10.152;2023-03-01T21:21:55;37.10;;;11.85;;
26512;SDS011;14186;53.822;10.152;2023-03-01T21:26:55;129.27;;;22.13;;
26512;SDS011;14186;53.822;10.152;2023-03-01T21:31:55;61.88;;;12.82;;
26512;SDS011;14186;53.822;10.152;2023-03-01T21:36:57;105.57;;;16.77;;
26512;SDS011;14186;53.822;10.152;2023-03-01T21:42:00;89.10;;;13.07;;
26512;SDS011;14186;53.822;10.152;2023-03-01T21:47:00;64.03;;;12.32;;
26512;SDS011;14186;53.822;10.152;2023-03-01T21:52:01;51.15;;;11.88;;
26512;SDS011;14186;53.822;10.152;2023-03-01T21:57:02;84.07;;;14.95;;
26512;SDS011;14186;53.822;10.152;2023-03-01T22:02:02;96.97;;;13.77;;
26512;SDS011;14186;53.822;10.152;2023-03-01T22:07:03;88.47;;;12.98;;
26512;SDS011;14186;53.822;10.152;2023-03-01T22:12:04;98.72;;;12.85;;
26512;SDS011;14186;53.822;10.152;2023-03-01T22:17:05;76.00;;;11.93;;
26512;SDS011;14186;53.822;10.152;2023-03-01T22:22:07;108.72;;;13.95;;
26512;SDS011;14186;53.822;10.152;2023-03-01T22:27:07;72.28;;;11.75;;
26512;SDS011;14186;53.822;10.152;2023-03-01T22:32:07;161.43;;;17.23;;
26512;SDS011;14186;53.822;10.152;2023-03-01T22:37:09;100.05;;;13.98;;
26512;SDS011;14186;53.822;10.152;2023-03-01T22:42:09;125.47;;;15.02;;
26512;SDS011;14186;53.822;10.152;2023-03-01T22:47:09;50.83;;;11.23;;
26512;SDS011;14186;53.822;10.152;2023-03-01T22:52:11;68.18;;;12.73;;
26512;SDS011;14186;53.822;10.152;2023-03-01T22:57:11;103.75;;;13.40;;
26512;SDS011;14186;53.822;10.152;2023-03-01T23:02:11;41.65;;;10.50;;
26512;SDS011;14186;53.822;10.152;2023-03-01T23:07:13;72.07;;;13.50;;
26512;SDS011;14186;53.822;10.152;2023-03-01T23:12:13;68.18;;;12.38;;
26512;SDS011;14186;53.822;10.152;2023-03-01T23:17:13;60.22;;;11.35;;
26512;SDS011;14186;53.822;10.152;2023-03-01T23:22:15;112.97;;;13.98;;
26512;SDS011;14186;53.822;10.152;2023-03-01T23:27:15;93.75;;;14.40;;
26512;SDS011;14186;53.822;10.152;2023-03-01T23:32:15;127.72;;;15.13;;
26512;SDS011;14186;53.822;10.152;2023-03-01T23:37:17;85.70;;;13.23;;
26512;SDS011;14186;53.822;10.152;2023-03-01T23:42:17;96.15;;;14.30;;
26512;SDS011;14186;53.822;10.152;2023-03-01T23:47:17;93.57;;;13.65;;
26512;SDS011;14186;53.822;10.152;2023-03-01T23:52:19;147.55;;;18.55;;
26512;SDS011;14186;53.822;10.152;2023-03-01T23:57:19;98.20;;;14.10;;
